sensor_id;sensor_type;location;lat;lon;timestamp;P1;durP1;ratioP1;P2;durP2;ratioP2
13795;SDS011;40911;51.552;9.874;2023-02-13T00:02:02;18.42;;;10.15;;
13795;SDS011;40911;51.552;9.874;2023-02-13T00:04:23;19.50;;;10.82;;
13795;SDS011;40911;51.552;9.874;2023-02-13T00:06:45;19.00;;;10.65;;
13795;SDS011;40911;51.552;9.874;2023-02-13T00:09:07;18.52;;;10.55;;
13795;SDS011;40911;51.552;9.874;2023-02-13T00:11:32;19.38;;;10.88;;
13795;SDS011;40911;51.552;9.874;2023-02-13T00:13:55;20.13;;;10.93;;
13795;SDS011;40911;51.552;9.874;2023-02-13T00:16:18;17.08;;;9.93;;
13795;SDS011;40911;51.552;9.874;2023-02-13T00:18:40;20.92;;;10.48;;
13795;SDS011;40911;51.552;9.874;2023-02-13T00:21:02;18.90;;;10.60;;
13795;SDS011;40911;51.552;9.874;2023-02-13T00:23:26;19.17;;;11.30;;
13795;SDS011;40911;51.552;9.874;2023-02-13T00:25:49;22.25;;;11.82;;
13795;SDS011;40911;51.552;9.874;2023-02-13T00:28:10;21.70;;;11.40;;
13795;SDS011;40911;51.552;9.874;2023-02-13T00:30:39;20.90;;;11.38;;
13795;SDS011;40911;51.552;9.874;2023-02-13T00:33:01;19.20;;;11.07;;
13795;SDS011;40911;51.552;9.874;2023-02-13T00:35:23;22.83;;;12.18;;
13795;SDS011;40911;51.552;9.874;2023-02-13T00:37:44;22.98;;;11.00;;
13795;SDS011;40911;51.552;9.874;2023-02-13T00:40:06;17.88;;;10.45;;
13795;SDS011;40911;51.552;9.874;2023-02-13T00:42:29;20.05;;;10.93;;
13795;SDS011;40911;51.552;9.874;2023-02-13T00:44:50;20.80;;;11.15;;
13795;SDS011;40911;51.552;9.874;2023-02-13T00:49:35;24.33;;;11.13;;
13795;SDS011;40911;51.552;9.874;2023-02-13T00:51:56;21.00;;;11.80;;
13795;SDS011;40911;51.552;9.874;2023-02-13T00:54:18;23.10;;;12.10;;
13795;SDS011;40911;51.552;9.874;2023-02-13T00:56:40;21.83;;;11.60;;
13795;SDS011;40911;51.552;9.874;2023-02-13T00:59:02;24.27;;;12.38;;
13795;SDS011;40911;51.552;9.874;2023-02-13T01:01:23;22.25;;;12.70;;
13795;SDS011;40911;51.552;9.874;2023-02-13T01:06:08;21.40;;;11.13;;
13795;SDS011;40911;51.552;9.874;2023-02-13T01:08:30;21.08;;;10.80;;
13795;SDS011;40911;51.552;9.874;2023-02-13T01:10:51;19.30;;;11.05;;
13795;SDS011;40911;51.552;9.874;2023-02-13T01:13:13;18.13;;;9.50;;
13795;SDS011;40911;51.552;9.874;2023-02-13T01:15:38;19.73;;;10.65;;
13795;SDS011;40911;51.552;9.874;2023-02-13T01:18:00;19.85;;;10.52;;
13795;SDS011;40911;51.552;9.874;2023-02-13T01:20:23;20.83;;;10.45;;
13795;SDS011;40911;51.552;9.874;2023-02-13T01:22:45;19.42;;;10.48;;
13795;SDS011;40911;51.552;9.874;2023-02-13T01:25:07;22.27;;;11.68;;
13795;SDS011;40911;51.552;9.874;2023-02-13T01:27:29;18.02;;;10.55;;
13795;SDS011;40911;51.552;9.874;2023-02-13T01:29:51;22.95;;;11.85;;
13795;SDS011;40911;51.552;9.874;2023-02-13T01:32:13;18.88;;;11.13;;
13795;SDS011;40911;51.552;9.874;2023-02-13T01:36:57;22.35;;;11.48;;
13795;SDS011;40911;51.552;9.874;2023-02-13T01:39:19;22.50;;;10.80;;
13795;SDS011;40911;51.552;9.874;2023-02-13T01:41:41;25.20;;;11.35;;
13795;SDS011;40911;51.552;9.874;2023-02-13T01:44:03;19.83;;;11.07;;
13795;SDS011;40911;51.552;9.874;2023-02-13T01:46:40;23.95;;;12.18;;
13795;SDS011;40911;51.552;9.874;2023-02-13T01:49:04;22.90;;;11.45;;
13795;SDS011;40911;51.552;9.874;2023-02-13T01:51:32;26.08;;;13.02;;
13795;SDS011;40911;51.552;9.874;2023-02-13T01:53:58;25.80;;;13.75;;
13795;SDS011;40911;51.552;9.874;2023-02-13T01:56:23;26.10;;;13.32;;
13795;SDS011;40911;51.552;9.874;2023-02-13T01:58:48;28.38;;;13.95;;
13795;SDS011;40911;51.552;9.874;2023-02-13T02:01:12;27.73;;;13.63;;
13795;SDS011;40911;51.552;9.874;2023-02-13T02:03:38;27.98;;;14.20;;
13795;SDS011;40911;51.552;9.874;2023-02-13T02:06:05;29.83;;;14.05;;
13795;SDS011;40911;51.552;9.874;2023-02-13T02:08:29;30.33;;;14.20;;
13795;SDS011;40911;51.552;9.874;2023-02-13T02:10:53;27.60;;;14.13;;
13795;SDS011;40911;51.552;9.874;2023-02-13T02:13:17;27.70;;;13.75;;
13795;SDS011;40911;51.552;9.874;2023-02-13T02:15:40;28.52;;;13.77;;
13795;SDS011;40911;51.552;9.874;2023-02-13T02:18:05;29.52;;;14.23;;
13795;SDS011;40911;51.552;9.874;2023-02-13T02:20:32;26.98;;;13.20;;
13795;SDS011;40911;51.552;9.874;2023-02-13T02:23:44;29.30;;;14.23;;
13795;SDS011;40911;51.552;9.874;2023-02-13T02:32:19;29.80;;;13.55;;
13795;SDS011;40911;51.552;9.874;2023-02-13T02:34:50;26.33;;;13.25;;
13795;SDS011;40911;51.552;9.874;2023-02-13T02:37:20;26.98;;;13.25;;
13795;SDS011;40911;51.552;9.874;2023-02-13T02:39:59;25.95;;;13.70;;
13795;SDS011;40911;51.552;9.874;2023-02-13T02:42:31;29.77;;;14.55;;
13795;SDS011;40911;51.552;9.874;2023-02-13T02:45:04;29.42;;;14.50;;
13795;SDS011;40911;51.552;9.874;2023-02-13T02:47:33;32.28;;;15.48;;
13795;SDS011;40911;51.552;9.874;2023-02-13T02:50:25;29.30;;;14.77;;
13795;SDS011;40911;51.552;9.874;2023-02-13T02:52:56;31.17;;;15.32;;
13795;SDS011;40911;51.552;9.874;2023-02-13T02:55:30;34.92;;;15.20;;
13795;SDS011;40911;51.552;9.874;2023-02-13T02:57:58;32.60;;;15.20;;
13795;SDS011;40911;51.552;9.874;2023-02-13T03:00:43;31.75;;;14.63;;
13795;SDS011;40911;51.552;9.874;2023-02-13T03:03:25;30.25;;;14.13;;
13795;SDS011;40911;51.552;9.874;2023-02-13T03:06:08;30.17;;;14.55;;
13795;SDS011;40911;51.552;9.874;2023-02-13T03:08:35;30.83;;;14.75;;
13795;SDS011;40911;51.552;9.874;2023-02-13T03:11:14;28.02;;;13.48;;
13795;SDS011;40911;51.552;9.874;2023-02-13T03:13:54;30.20;;;14.15;;
13795;SDS011;40911;51.552;9.874;2023-02-13T03:16:17;26.45;;;12.82;;
13795;SDS011;40911;51.552;9.874;2023-02-13T03:19:01;26.65;;;12.40;;
13795;SDS011;40911;51.552;9.874;2023-02-13T03:21:56;23.60;;;11.15;;
13795;SDS011;40911;51.552;9.874;2023-02-13T03:24:44;23.52;;;11.02;;
13795;SDS011;40911;51.552;9.874;2023-02-13T03:27:13;19.55;;;9.63;;
13795;SDS011;40911;51.552;9.874;2023-02-13T03:30:02;15.85;;;9.10;;
13795;SDS011;40911;51.552;9.874;2023-02-13T03:32:34;16.77;;;9.40;;
13795;SDS011;40911;51.552;9.874;2023-02-13T03:35:10;16.92;;;8.93;;
13795;SDS011;40911;51.552;9.874;2023-02-13T03:37:59;12.63;;;8.13;;
13795;SDS011;40911;51.552;9.874;2023-02-13T03:40:27;13.27;;;7.68;;
13795;SDS011;40911;51.552;9.874;2023-02-13T03:42:53;10.80;;;7.03;;
13795;SDS011;40911;51.552;9.874;2023-02-13T03:45:20;10.50;;;6.80;;
13795;SDS011;40911;51.552;9.874;2023-02-13T03:48:03;7.30;;;6.07;;
13795;SDS011;40911;51.552;9.874;2023-02-13T03:50:30;6.78;;;5.35;;
13795;SDS011;40911;51.552;9.874;2023-02-13T03:52:51;10.57;;;6.93;;
13795;SDS011;40911;51.552;9.874;2023-02-13T03:55:16;7.25;;;5.60;;
13795;SDS011;40911;51.552;9.874;2023-02-13T03:57:58;8.32;;;5.97;;
13795;SDS011;40911;51.552;9.874;2023-02-13T04:00:43;7.63;;;5.50;;
13795;SDS011;40911;51.552;9.874;2023-02-13T04:03:12;7.68;;;5.65;;
13795;SDS011;40911;51.552;9.874;2023-02-13T04:05:38;7.07;;;5.45;;
13795;SDS011;40911;51.552;9.874;2023-02-13T04:08:03;7.38;;;6.00;;
13795;SDS011;40911;51.552;9.874;2023-02-13T04:10:25;8.77;;;5.80;;
13795;SDS011;40911;51.552;9.874;2023-02-13T04:12:55;10.05;;;5.72;;
13795;SDS011;40911;51.552;9.874;2023-02-13T04:15:21;7.15;;;5.07;;
13795;SDS011;40911;51.552;9.874;2023-02-13T04:17:48;8.20;;;5.70;;
13795;SDS011;40911;51.552;9.874;2023-02-13T04:20:12;6.25;;;5.40;;
13795;SDS011;40911;51.552;9.874;2023-02-13T04:22:41;7.28;;;5.60;;
13795;SDS011;40911;51.552;9.874;2023-02-13T04:25:03;6.82;;;5.13;;
13795;SDS011;40911;51.552;9.874;2023-02-13T04:27:26;5.55;;;4.78;;
13795;SDS011;40911;51.552;9.874;2023-02-13T04:29:48;5.75;;;4.45;;
13795;SDS011;40911;51.552;9.874;2023-02-13T04:32:10;5.00;;;4.50;;
13795;SDS011;40911;51.552;9.874;2023-02-13T04:34:33;6.53;;;4.30;;
13795;SDS011;40911;51.552;9.874;2023-02-13T04:39:17;4.20;;;3.90;;
13795;SDS011;40911;51.552;9.874;2023-02-13T04:41:39;4.55;;;3.80;;
13795;SDS011;40911;51.552;9.874;2023-02-13T04:44:01;4.07;;;3.70;;
13795;SDS011;40911;51.552;9.874;2023-02-13T04:46:22;3.83;;;3.53;;
13795;SDS011;40911;51.552;9.874;2023-02-13T04:48:44;3.80;;;3.50;;
13795;SDS011;40911;51.552;9.874;2023-02-13T04:51:06;6.05;;;3.70;;
13795;SDS011;40911;51.552;9.874;2023-02-13T04:53:27;4.95;;;3.80;;
13795;SDS011;40911;51.552;9.874;2023-02-13T04:55:50;5.53;;;3.75;;
13795;SDS011;40911;51.552;9.874;2023-02-13T04:58:12;4.40;;;4.00;;
13795;SDS011;40911;51.552;9.874;2023-02-13T05:00:34;3.72;;;3.42;;
13795;SDS011;40911;51.552;9.874;2023-02-13T05:02:59;4.47;;;4.07;;
13795;SDS011;40911;51.552;9.874;2023-02-13T05:05:21;4.78;;;3.65;;
13795;SDS011;40911;51.552;9.874;2023-02-13T05:07:42;3.80;;;3.50;;
13795;SDS011;40911;51.552;9.874;2023-02-13T05:12:28;3.97;;;3.67;;
13795;SDS011;40911;51.552;9.874;2023-02-13T05:14:49;4.78;;;4.00;;
13795;SDS011;40911;51.552;9.874;2023-02-13T05:17:11;4.20;;;3.80;;
13795;SDS011;40911;51.552;9.874;2023-02-13T05:19:32;4.25;;;3.75;;
13795;SDS011;40911;51.552;9.874;2023-02-13T05:21:54;4.85;;;4.00;;
13795;SDS011;40911;51.552;9.874;2023-02-13T05:24:33;4.30;;;3.90;;
13795;SDS011;40911;51.552;9.874;2023-02-13T05:26:55;4.97;;;4.05;;
13795;SDS011;40911;51.552;9.874;2023-02-13T05:29:18;4.57;;;3.75;;
13795;SDS011;40911;51.552;9.874;2023-02-13T05:31:39;4.38;;;4.00;;
13795;SDS011;40911;51.552;9.874;2023-02-13T05:34:00;4.85;;;4.35;;
13795;SDS011;40911;51.552;9.874;2023-02-13T05:36:22;4.28;;;3.88;;
13795;SDS011;40911;51.552;9.874;2023-02-13T05:38:44;4.90;;;4.30;;
13795;SDS011;40911;51.552;9.874;2023-02-13T05:41:05;5.72;;;4.30;;
13795;SDS011;40911;51.552;9.874;2023-02-13T05:45:50;6.30;;;4.82;;
13795;SDS011;40911;51.552;9.874;2023-02-13T05:48:12;6.88;;;4.80;;
13795;SDS011;40911;51.552;9.874;2023-02-13T05:50:33;7.63;;;4.72;;
13795;SDS011;40911;51.552;9.874;2023-02-13T05:52:55;4.53;;;4.10;;
13795;SDS011;40911;51.552;9.874;2023-02-13T05:55:17;6.18;;;4.55;;
13795;SDS011;40911;51.552;9.874;2023-02-13T05:57:38;6.38;;;4.63;;
13795;SDS011;40911;51.552;9.874;2023-02-13T06:00:00;4.90;;;4.30;;
13795;SDS011;40911;51.552;9.874;2023-02-13T06:02:23;5.13;;;4.18;;
13795;SDS011;40911;51.552;9.874;2023-02-13T06:04:45;5.03;;;4.53;;
13795;SDS011;40911;51.552;9.874;2023-02-13T06:07:07;5.80;;;4.18;;
13795;SDS011;40911;51.552;9.874;2023-02-13T06:09:28;4.82;;;4.35;;
13795;SDS011;40911;51.552;9.874;2023-02-13T06:11:50;6.25;;;4.35;;
13795;SDS011;40911;51.552;9.874;2023-02-13T06:14:12;5.68;;;4.38;;
13795;SDS011;40911;51.552;9.874;2023-02-13T06:16:34;5.53;;;4.43;;
13795;SDS011;40911;51.552;9.874;2023-02-13T06:18:57;4.85;;;4.35;;
13795;SDS011;40911;51.552;9.874;2023-02-13T06:21:18;4.80;;;4.30;;
13795;SDS011;40911;51.552;9.874;2023-02-13T06:23:40;4.50;;;4.10;;
13795;SDS011;40911;51.552;9.874;2023-02-13T06:26:02;4.80;;;4.03;;
13795;SDS011;40911;51.552;9.874;2023-02-13T06:28:24;5.35;;;4.20;;
13795;SDS011;40911;51.552;9.874;2023-02-13T06:30:46;4.72;;;4.30;;
13795;SDS011;40911;51.552;9.874;2023-02-13T06:33:08;4.38;;;3.97;;
13795;SDS011;40911;51.552;9.874;2023-02-13T06:35:31;5.43;;;3.92;;
13795;SDS011;40911;51.552;9.874;2023-02-13T06:37:52;4.40;;;4.00;;
13795;SDS011;40911;51.552;9.874;2023-02-13T06:40:14;4.10;;;3.70;;
13795;SDS011;40911;51.552;9.874;2023-02-13T06:42:36;4.13;;;3.72;;
13795;SDS011;40911;51.552;9.874;2023-02-13T06:44:58;5.28;;;3.83;;
13795;SDS011;40911;51.552;9.874;2023-02-13T06:47:19;4.85;;;3.45;;
13795;SDS011;40911;51.552;9.874;2023-02-13T06:49:41;3.85;;;3.47;;
13795;SDS011;40911;51.552;9.874;2023-02-13T06:52:04;3.92;;;3.60;;
13795;SDS011;40911;51.552;9.874;2023-02-13T06:54:26;5.05;;;3.92;;
13795;SDS011;40911;51.552;9.874;2023-02-13T06:56:48;4.43;;;4.03;;
13795;SDS011;40911;51.552;9.874;2023-02-13T06:59:09;4.72;;;3.95;;
13795;SDS011;40911;51.552;9.874;2023-02-13T07:01:31;4.97;;;3.55;;
13795;SDS011;40911;51.552;9.874;2023-02-13T07:03:52;4.20;;;3.80;;
13795;SDS011;40911;51.552;9.874;2023-02-13T07:06:17;6.15;;;4.20;;
13795;SDS011;40911;51.552;9.874;2023-02-13T07:08:40;4.20;;;3.80;;
13795;SDS011;40911;51.552;9.874;2023-02-13T07:11:02;5.78;;;3.90;;
13795;SDS011;40911;51.552;9.874;2023-02-13T07:13:23;4.22;;;3.83;;
13795;SDS011;40911;51.552;9.874;2023-02-13T07:15:45;7.07;;;3.92;;
13795;SDS011;40911;51.552;9.874;2023-02-13T07:18:07;4.05;;;3.53;;
13795;SDS011;40911;51.552;9.874;2023-02-13T07:20:29;4.28;;;3.88;;
13795;SDS011;40911;51.552;9.874;2023-02-13T07:22:50;4.25;;;3.85;;
13795;SDS011;40911;51.552;9.874;2023-02-13T07:25:14;4.20;;;3.72;;
13795;SDS011;40911;51.552;9.874;2023-02-13T07:27:35;5.93;;;4.15;;
13795;SDS011;40911;51.552;9.874;2023-02-13T07:29:57;4.75;;;4.28;;
13795;SDS011;40911;51.552;9.874;2023-02-13T07:32:18;4.85;;;3.83;;
13795;SDS011;40911;51.552;9.874;2023-02-13T07:34:40;5.32;;;4.40;;
13795;SDS011;40911;51.552;9.874;2023-02-13T07:37:02;5.05;;;4.22;;
13795;SDS011;40911;51.552;9.874;2023-02-13T07:39:23;4.28;;;3.88;;
13795;SDS011;40911;51.552;9.874;2023-02-13T07:41:46;5.22;;;4.63;;
13795;SDS011;40911;51.552;9.874;2023-02-13T07:44:08;4.53;;;4.13;;
13795;SDS011;40911;51.552;9.874;2023-02-13T07:46:30;5.07;;;4.40;;
13795;SDS011;40911;51.552;9.874;2023-02-13T07:48:51;5.10;;;4.50;;
13795;SDS011;40911;51.552;9.874;2023-02-13T07:51:13;5.13;;;4.63;;
13795;SDS011;40911;51.552;9.874;2023-02-13T07:53:35;5.13;;;4.22;;
13795;SDS011;40911;51.552;9.874;2023-02-13T07:55:57;5.35;;;4.40;;
13795;SDS011;40911;51.552;9.874;2023-02-13T07:58:20;5.22;;;4.35;;
13795;SDS011;40911;51.552;9.874;2023-02-13T08:00:41;7.25;;;4.78;;
13795;SDS011;40911;51.552;9.874;2023-02-13T08:05:24;5.47;;;4.78;;
13795;SDS011;40911;51.552;9.874;2023-02-13T08:07:46;8.05;;;4.45;;
13795;SDS011;40911;51.552;9.874;2023-02-13T08:10:09;5.75;;;4.22;;
13795;SDS011;40911;51.552;9.874;2023-02-13T08:12:50;4.70;;;3.88;;
13795;SDS011;40911;51.552;9.874;2023-02-13T08:15:13;5.28;;;4.28;;
13795;SDS011;40911;51.552;9.874;2023-02-13T08:17:35;6.03;;;4.10;;
13795;SDS011;40911;51.552;9.874;2023-02-13T08:19:57;5.28;;;4.47;;
13795;SDS011;40911;51.552;9.874;2023-02-13T08:22:19;4.60;;;4.10;;
13795;SDS011;40911;51.552;9.874;2023-02-13T08:24:40;4.55;;;4.07;;
13795;SDS011;40911;51.552;9.874;2023-02-13T08:27:02;4.72;;;4.30;;
13795;SDS011;40911;51.552;9.874;2023-02-13T08:31:46;4.13;;;3.75;;
13795;SDS011;40911;51.552;9.874;2023-02-13T08:34:08;5.20;;;4.60;;
13795;SDS011;40911;51.552;9.874;2023-02-13T08:36:30;5.60;;;4.43;;
13795;SDS011;40911;51.552;9.874;2023-02-13T08:38:52;5.30;;;4.80;;
13795;SDS011;40911;51.552;9.874;2023-02-13T08:41:13;4.80;;;4.28;;
13795;SDS011;40911;51.552;9.874;2023-02-13T08:43:37;4.78;;;4.35;;
13795;SDS011;40911;51.552;9.874;2023-02-13T08:48:21;4.50;;;4.10;;
13795;SDS011;40911;51.552;9.874;2023-02-13T08:50:43;5.47;;;4.70;;
13795;SDS011;40911;51.552;9.874;2023-02-13T08:53:05;5.80;;;4.43;;
13795;SDS011;40911;51.552;9.874;2023-02-13T08:55:26;8.20;;;5.38;;
13795;SDS011;40911;51.552;9.874;2023-02-13T08:57:48;7.72;;;5.53;;
13795;SDS011;40911;51.552;9.874;2023-02-13T09:00:10;7.65;;;4.93;;
13795;SDS011;40911;51.552;9.874;2023-02-13T09:02:33;7.38;;;4.80;;
13795;SDS011;40911;51.552;9.874;2023-02-13T09:04:56;7.82;;;5.57;;
13795;SDS011;40911;51.552;9.874;2023-02-13T09:07:18;8.57;;;5.57;;
13795;SDS011;40911;51.552;9.874;2023-02-13T09:09:39;10.55;;;6.63;;
13795;SDS011;40911;51.552;9.874;2023-02-13T09:14:23;9.98;;;5.70;;
13795;SDS011;40911;51.552;9.874;2023-02-13T09:16:44;8.40;;;5.63;;
13795;SDS011;40911;51.552;9.874;2023-02-13T09:19:06;7.97;;;5.75;;
13795;SDS011;40911;51.552;9.874;2023-02-13T09:21:29;10.38;;;6.57;;
13795;SDS011;40911;51.552;9.874;2023-02-13T09:23:50;14.77;;;7.95;;
13795;SDS011;40911;51.552;9.874;2023-02-13T09:26:14;17.52;;;8.65;;
13795;SDS011;40911;51.552;9.874;2023-02-13T09:28:37;15.90;;;8.95;;
13795;SDS011;40911;51.552;9.874;2023-02-13T09:31:03;18.08;;;9.48;;
13795;SDS011;40911;51.552;9.874;2023-02-13T09:33:26;20.35;;;9.65;;
13795;SDS011;40911;51.552;9.874;2023-02-13T09:35:47;18.30;;;9.82;;
13795;SDS011;40911;51.552;9.874;2023-02-13T09:38:10;17.20;;;9.27;;
13795;SDS011;40911;51.552;9.874;2023-02-13T09:40:34;17.05;;;9.23;;
13795;SDS011;40911;51.552;9.874;2023-02-13T09:43:02;15.25;;;9.10;;
13795;SDS011;40911;51.552;9.874;2023-02-13T09:45:28;17.10;;;9.30;;
13795;SDS011;40911;51.552;9.874;2023-02-13T09:47:49;21.45;;;10.45;;
13795;SDS011;40911;51.552;9.874;2023-02-13T09:50:13;18.60;;;9.80;;
13795;SDS011;40911;51.552;9.874;2023-02-13T09:52:38;16.38;;;9.35;;
13795;SDS011;40911;51.552;9.874;2023-02-13T09:55:12;17.98;;;9.50;;
13795;SDS011;40911;51.552;9.874;2023-02-13T09:57:37;17.15;;;9.27;;
13795;SDS011;40911;51.552;9.874;2023-02-13T10:00:05;16.45;;;9.32;;
13795;SDS011;40911;51.552;9.874;2023-02-13T10:02:41;17.52;;;9.75;;
13795;SDS011;40911;51.552;9.874;2023-02-13T10:05:21;16.67;;;8.95;;
13795;SDS011;40911;51.552;9.874;2023-02-13T10:07:55;16.80;;;9.80;;
13795;SDS011;40911;51.552;9.874;2023-02-13T10:10:24;17.08;;;10.20;;
13795;SDS011;40911;51.552;9.874;2023-02-13T10:12:55;16.00;;;9.07;;
13795;SDS011;40911;51.552;9.874;2023-02-13T10:15:28;17.67;;;9.32;;
13795;SDS011;40911;51.552;9.874;2023-02-13T10:17:55;18.27;;;9.77;;
13795;SDS011;40911;51.552;9.874;2023-02-13T10:20:23;18.05;;;9.55;;
13795;SDS011;40911;51.552;9.874;2023-02-13T10:22:50;15.38;;;8.80;;
13795;SDS011;40911;51.552;9.874;2023-02-13T10:25:15;17.08;;;9.27;;
13795;SDS011;40911;51.552;9.874;2023-02-13T10:27:43;17.00;;;9.70;;
13795;SDS011;40911;51.552;9.874;2023-02-13T10:30:14;17.05;;;9.98;;
13795;SDS011;40911;51.552;9.874;2023-02-13T10:32:46;17.53;;;9.80;;
13795;SDS011;40911;51.552;9.874;2023-02-13T10:35:30;17.00;;;9.85;;
13795;SDS011;40911;51.552;9.874;2023-02-13T10:37:53;18.10;;;10.70;;
13795;SDS011;40911;51.552;9.874;2023-02-13T10:40:17;15.90;;;9.98;;
13795;SDS011;40911;51.552;9.874;2023-02-13T10:45:17;17.05;;;9.93;;
13795;SDS011;40911;51.552;9.874;2023-02-13T10:47:50;15.65;;;9.55;;
13795;SDS011;40911;51.552;9.874;2023-02-13T10:50:20;17.92;;;9.65;;
13795;SDS011;40911;51.552;9.874;2023-02-13T10:52:49;17.75;;;10.95;;
13795;SDS011;40911;51.552;9.874;2023-02-13T10:55:21;15.60;;;9.40;;
13795;SDS011;40911;51.552;9.874;2023-02-13T10:57:55;13.70;;;9.50;;
13795;SDS011;40911;51.552;9.874;2023-02-13T11:00:28;17.92;;;9.88;;
13795;SDS011;40911;51.552;9.874;2023-02-13T11:02:55;16.52;;;10.20;;
13795;SDS011;40911;51.552;9.874;2023-02-13T11:05:19;13.20;;;9.32;;
13795;SDS011;40911;51.552;9.874;2023-02-13T11:07:44;13.43;;;8.80;;
13795;SDS011;40911;51.552;9.874;2023-02-13T11:10:12;13.60;;;8.85;;
13795;SDS011;40911;51.552;9.874;2023-02-13T11:12:35;13.38;;;9.05;;
13795;SDS011;40911;51.552;9.874;2023-02-13T11:14:57;14.00;;;9.50;;
13795;SDS011;40911;51.552;9.874;2023-02-13T11:17:22;17.70;;;10.52;;
13795;SDS011;40911;51.552;9.874;2023-02-13T11:19:46;15.57;;;10.38;;
13795;SDS011;40911;51.552;9.874;2023-02-13T11:22:11;15.20;;;9.57;;
13795;SDS011;40911;51.552;9.874;2023-02-13T11:24:35;14.07;;;9.20;;
13795;SDS011;40911;51.552;9.874;2023-02-13T11:26:57;12.55;;;8.90;;
13795;SDS011;40911;51.552;9.874;2023-02-13T11:29:21;14.23;;;9.60;;
13795;SDS011;40911;51.552;9.874;2023-02-13T11:31:45;12.68;;;9.32;;
13795;SDS011;40911;51.552;9.874;2023-02-13T11:34:25;15.45;;;10.32;;
13795;SDS011;40911;51.552;9.874;2023-02-13T11:36:50;14.18;;;9.73;;
13795;SDS011;40911;51.552;9.874;2023-02-13T11:39:16;16.10;;;10.73;;
13795;SDS011;40911;51.552;9.874;2023-02-13T11:41:41;15.48;;;10.20;;
13795;SDS011;40911;51.552;9.874;2023-02-13T11:44:04;16.10;;;9.95;;
13795;SDS011;40911;51.552;9.874;2023-02-13T11:48:55;13.40;;;9.73;;
13795;SDS011;40911;51.552;9.874;2023-02-13T11:51:20;17.13;;;10.38;;
13795;SDS011;40911;51.552;9.874;2023-02-13T11:53:58;14.80;;;9.27;;
13795;SDS011;40911;51.552;9.874;2023-02-13T11:58:41;16.20;;;9.65;;
13795;SDS011;40911;51.552;9.874;2023-02-13T12:01:07;15.10;;;9.63;;
13795;SDS011;40911;51.552;9.874;2023-02-13T12:06:01;17.80;;;10.70;;
13795;SDS011;40911;51.552;9.874;2023-02-13T12:08:27;16.17;;;10.38;;
13795;SDS011;40911;51.552;9.874;2023-02-13T12:10:50;15.75;;;9.95;;
13795;SDS011;40911;51.552;9.874;2023-02-13T12:13:13;15.32;;;10.30;;
13795;SDS011;40911;51.552;9.874;2023-02-13T12:15:41;15.00;;;10.27;;
13795;SDS011;40911;51.552;9.874;2023-02-13T12:18:05;16.15;;;10.50;;
13795;SDS011;40911;51.552;9.874;2023-02-13T12:20:42;15.68;;;10.73;;
13795;SDS011;40911;51.552;9.874;2023-02-13T12:29:53;17.10;;;10.57;;
13795;SDS011;40911;51.552;9.874;2023-02-13T12:32:26;14.60;;;10.27;;
13795;SDS011;40911;51.552;9.874;2023-02-13T12:35:13;14.57;;;10.45;;
13795;SDS011;40911;51.552;9.874;2023-02-13T12:37:54;14.65;;;10.15;;
13795;SDS011;40911;51.552;9.874;2023-02-13T12:40:29;16.67;;;9.95;;
13795;SDS011;40911;51.552;9.874;2023-02-13T12:43:03;14.43;;;9.82;;
13795;SDS011;40911;51.552;9.874;2023-02-13T12:45:46;14.38;;;10.13;;
13795;SDS011;40911;51.552;9.874;2023-02-13T12:48:17;15.63;;;10.20;;
13795;SDS011;40911;51.552;9.874;2023-02-13T12:50:52;16.45;;;10.52;;
13795;SDS011;40911;51.552;9.874;2023-02-13T12:53:26;14.35;;;9.60;;
13795;SDS011;40911;51.552;9.874;2023-02-13T12:56:10;15.70;;;9.85;;
13795;SDS011;40911;51.552;9.874;2023-02-13T12:58:47;16.42;;;10.43;;
13795;SDS011;40911;51.552;9.874;2023-02-13T13:01:22;14.43;;;10.13;;
13795;SDS011;40911;51.552;9.874;2023-02-13T13:03:50;14.30;;;10.15;;
13795;SDS011;40911;51.552;9.874;2023-02-13T13:06:28;15.18;;;10.25;;
13795;SDS011;40911;51.552;9.874;2023-02-13T13:12:02;15.85;;;10.20;;
13795;SDS011;40911;51.552;9.874;2023-02-13T13:14:34;16.83;;;10.73;;
13795;SDS011;40911;51.552;9.874;2023-02-13T13:17:06;16.88;;;10.80;;
13795;SDS011;40911;51.552;9.874;2023-02-13T13:19:39;14.90;;;9.80;;
13795;SDS011;40911;51.552;9.874;2023-02-13T13:22:09;15.23;;;10.05;;
13795;SDS011;40911;51.552;9.874;2023-02-13T13:24:43;15.07;;;10.82;;
13795;SDS011;40911;51.552;9.874;2023-02-13T13:27:14;14.63;;;10.68;;
13795;SDS011;40911;51.552;9.874;2023-02-13T13:29:41;15.05;;;10.52;;
13795;SDS011;40911;51.552;9.874;2023-02-13T13:32:07;15.45;;;10.27;;
13795;SDS011;40911;51.552;9.874;2023-02-13T13:34:35;15.93;;;10.80;;
13795;SDS011;40911;51.552;9.874;2023-02-13T13:37:01;15.30;;;10.43;;
13795;SDS011;40911;51.552;9.874;2023-02-13T13:39:38;17.73;;;10.88;;
13795;SDS011;40911;51.552;9.874;2023-02-13T13:42:08;15.40;;;10.32;;
13795;SDS011;40911;51.552;9.874;2023-02-13T13:44:46;15.70;;;10.27;;
13795;SDS011;40911;51.552;9.874;2023-02-13T13:47:18;13.55;;;9.90;;
13795;SDS011;40911;51.552;9.874;2023-02-13T13:49:50;14.88;;;10.30;;
13795;SDS011;40911;51.552;9.874;2023-02-13T13:52:24;14.27;;;9.35;;
13795;SDS011;40911;51.552;9.874;2023-02-13T13:54:47;15.25;;;10.00;;
13795;SDS011;40911;51.552;9.874;2023-02-13T13:57:11;15.60;;;10.18;;
13795;SDS011;40911;51.552;9.874;2023-02-13T14:02:39;15.88;;;10.88;;
13795;SDS011;40911;51.552;9.874;2023-02-13T14:05:09;14.40;;;10.10;;
13795;SDS011;40911;51.552;9.874;2023-02-13T14:07:41;15.02;;;10.18;;
13795;SDS011;40911;51.552;9.874;2023-02-13T14:10:03;15.00;;;10.85;;
13795;SDS011;40911;51.552;9.874;2023-02-13T14:12:35;14.93;;;10.07;;
13795;SDS011;40911;51.552;9.874;2023-02-13T14:14:57;16.90;;;10.30;;
13795;SDS011;40911;51.552;9.874;2023-02-13T14:20:35;15.35;;;9.55;;
13795;SDS011;40911;51.552;9.874;2023-02-13T14:23:05;16.42;;;10.65;;
13795;SDS011;40911;51.552;9.874;2023-02-13T14:25:28;16.75;;;11.30;;
13795;SDS011;40911;51.552;9.874;2023-02-13T14:27:54;14.13;;;9.70;;
13795;SDS011;40911;51.552;9.874;2023-02-13T14:30:25;15.05;;;10.45;;
13795;SDS011;40911;51.552;9.874;2023-02-13T14:32:48;14.45;;;10.00;;
13795;SDS011;40911;51.552;9.874;2023-02-13T14:35:14;13.75;;;10.15;;
13795;SDS011;40911;51.552;9.874;2023-02-13T14:37:48;16.38;;;10.02;;
13795;SDS011;40911;51.552;9.874;2023-02-13T14:43:14;13.43;;;9.68;;
13795;SDS011;40911;51.552;9.874;2023-02-13T14:45:48;15.55;;;10.55;;
13795;SDS011;40911;51.552;9.874;2023-02-13T14:48:13;15.18;;;10.27;;
13795;SDS011;40911;51.552;9.874;2023-02-13T14:53:08;13.30;;;9.23;;
13795;SDS011;40911;51.552;9.874;2023-02-13T14:55:40;14.68;;;9.68;;
13795;SDS011;40911;51.552;9.874;2023-02-13T14:58:05;15.63;;;10.25;;
13795;SDS011;40911;51.552;9.874;2023-02-13T15:00:30;15.70;;;10.25;;
13795;SDS011;40911;51.552;9.874;2023-02-13T15:02:58;13.98;;;10.15;;
13795;SDS011;40911;51.552;9.874;2023-02-13T15:05:25;14.32;;;9.85;;
13795;SDS011;40911;51.552;9.874;2023-02-13T15:07:57;17.45;;;10.40;;
13795;SDS011;40911;51.552;9.874;2023-02-13T15:10:28;14.77;;;10.27;;
13795;SDS011;40911;51.552;9.874;2023-02-13T15:12:56;15.30;;;10.27;;
13795;SDS011;40911;51.552;9.874;2023-02-13T15:15:22;13.90;;;9.52;;
13795;SDS011;40911;51.552;9.874;2023-02-13T15:17:44;14.90;;;9.80;;
13795;SDS011;40911;51.552;9.874;2023-02-13T15:20:22;15.82;;;9.95;;
13795;SDS011;40911;51.552;9.874;2023-02-13T15:22:46;14.60;;;9.30;;
13795;SDS011;40911;51.552;9.874;2023-02-13T15:25:08;16.13;;;10.07;;
13795;SDS011;40911;51.552;9.874;2023-02-13T15:27:44;13.77;;;10.00;;
13795;SDS011;40911;51.552;9.874;2023-02-13T15:30:16;15.27;;;10.45;;